sensor_id;sensor_type;location;lat;lon;timestamp;P1;durP1;ratioP1;P2;durP2;ratioP2
3527;SDS011;1778;47.966;7.854;2023-06-22T00:00:58;5.50;;;5.00;;
3527;SDS011;1778;47.966;7.854;2023-06-22T00:02:00;8.00;;;4.17;;
3527;SDS011;1778;47.966;7.854;2023-06-22T00:03:02;6.63;;;4.93;;
3527;SDS011;1778;47.966;7.854;2023-06-22T00:04:04;5.13;;;4.63;;
3527;SDS011;1778;47.966;7.854;2023-06-22T00:05:05;4.53;;;4.33;;
3527;SDS011;1778;47.966;7.854;2023-06-22T00:06:07;4.83;;;4.63;;
3527;SDS011;1778;47.966;7.854;2023-06-22T00:07:09;5.10;;;4.80;;
3527;SDS011;1778;47.966;7.854;2023-06-22T00:08:11;12.27;;;4.37;;
3527;SDS011;1778;47.966;7.854;2023-06-22T00:09:13;5.30;;;4.97;;
3527;SDS011;1778;47.966;7.854;2023-06-22T00:10:15;5.50;;;5.00;;
3527;SDS011;1778;47.966;7.854;2023-06-22T00:11:16;4.80;;;4.40;;
3527;SDS011;1778;47.966;7.854;2023-06-22T00:12:18;5.03;;;4.70;;
3527;SDS011;1778;47.966;7.854;2023-06-22T00:13:20;5.50;;;5.20;;
3527;SDS011;1778;47.966;7.854;2023-06-22T00:14:22;5.90;;;5.30;;
3527;SDS011;1778;47.966;7.854;2023-06-22T00:15:24;5.70;;;4.67;;
3527;SDS011;1778;47.966;7.854;2023-06-22T00:16:25;5.80;;;5.30;;
3527;SDS011;1778;47.966;7.854;2023-06-22T00:17:27;5.63;;;5.23;;
3527;SDS011;1778;47.966;7.854;2023-06-22T00:18:28;4.97;;;4.40;;
3527;SDS011;1778;47.966;7.854;2023-06-22T00:19:31;5.00;;;4.70;;
3527;SDS011;1778;47.966;7.854;2023-06-22T00:20:36;5.00;;;4.70;;
3527;SDS011;1778;47.966;7.854;2023-06-22T00:21:38;10.13;;;5.20;;
3527;SDS011;1778;47.966;7.854;2023-06-22T00:22:40;5.20;;;4.90;;
3527;SDS011;1778;47.966;7.854;2023-06-22T00:23:44;5.10;;;4.80;;
3527;SDS011;1778;47.966;7.854;2023-06-22T00:24:45;6.73;;;6.23;;
3527;SDS011;1778;47.966;7.854;2023-06-22T00:25:47;7.97;;;5.60;;
3527;SDS011;1778;47.966;7.854;2023-06-22T00:26:49;5.10;;;4.80;;
3527;SDS011;1778;47.966;7.854;2023-06-22T00:27:50;4.70;;;4.50;;
3527;SDS011;1778;47.966;7.854;2023-06-22T00:28:52;5.43;;;5.03;;
3527;SDS011;1778;47.966;7.854;2023-06-22T00:29:53;7.00;;;5.40;;
3527;SDS011;1778;47.966;7.854;2023-06-22T00:30:55;6.10;;;5.03;;
3527;SDS011;1778;47.966;7.854;2023-06-22T00:31:59;5.03;;;4.70;;
3527;SDS011;1778;47.966;7.854;2023-06-22T00:33:01;5.10;;;4.70;;
3527;SDS011;1778;47.966;7.854;2023-06-22T00:34:03;5.07;;;4.30;;
3527;SDS011;1778;47.966;7.854;2023-06-22T00:35:06;20.23;;;4.70;;
3527;SDS011;1778;47.966;7.854;2023-06-22T00:36:08;5.17;;;4.80;;
3527;SDS011;1778;47.966;7.854;2023-06-22T00:37:14;4.20;;;4.00;;
3527;SDS011;1778;47.966;7.854;2023-06-22T00:38:15;6.20;;;4.57;;
3527;SDS011;1778;47.966;7.854;2023-06-22T00:39:17;6.10;;;4.33;;
3527;SDS011;1778;47.966;7.854;2023-06-22T00:40:18;4.67;;;4.37;;
3527;SDS011;1778;47.966;7.854;2023-06-22T00:41:22;5.80;;;4.47;;
3527;SDS011;1778;47.966;7.854;2023-06-22T00:42:24;7.60;;;4.40;;
3527;SDS011;1778;47.966;7.854;2023-06-22T00:43:26;8.40;;;4.80;;
3527;SDS011;1778;47.966;7.854;2023-06-22T00:44:28;5.17;;;4.87;;
3527;SDS011;1778;47.966;7.854;2023-06-22T00:45:30;5.40;;;5.03;;
3527;SDS011;1778;47.966;7.854;2023-06-22T00:46:32;6.20;;;5.67;;
3527;SDS011;1778;47.966;7.854;2023-06-22T00:47:34;5.07;;;4.77;;
3527;SDS011;1778;47.966;7.854;2023-06-22T00:48:37;5.50;;;5.10;;
3527;SDS011;1778;47.966;7.854;2023-06-22T00:49:41;4.90;;;4.50;;
3527;SDS011;1778;47.966;7.854;2023-06-22T00:50:44;7.47;;;4.73;;
3527;SDS011;1778;47.966;7.854;2023-06-22T00:51:49;4.60;;;4.30;;
3527;SDS011;1778;47.966;7.854;2023-06-22T00:52:52;5.60;;;5.10;;
3527;SDS011;1778;47.966;7.854;2023-06-22T00:53:57;4.87;;;4.67;;
3527;SDS011;1778;47.966;7.854;2023-06-22T00:54:59;5.10;;;4.80;;
3527;SDS011;1778;47.966;7.854;2023-06-22T00:56:04;7.60;;;5.67;;
3527;SDS011;1778;47.966;7.854;2023-06-22T00:57:09;8.73;;;5.33;;
3527;SDS011;1778;47.966;7.854;2023-06-22T00:58:13;4.73;;;4.47;;
3527;SDS011;1778;47.966;7.854;2023-06-22T00:59:15;9.63;;;5.83;;
3527;SDS011;1778;47.966;7.854;2023-06-22T01:00:18;5.20;;;4.80;;
3527;SDS011;1778;47.966;7.854;2023-06-22T01:01:21;5.50;;;5.10;;
3527;SDS011;1778;47.966;7.854;2023-06-22T01:02:24;5.30;;;4.93;;
3527;SDS011;1778;47.966;7.854;2023-06-22T01:03:25;5.70;;;5.30;;
3527;SDS011;1778;47.966;7.854;2023-06-22T01:04:33;6.13;;;5.73;;
3527;SDS011;1778;47.966;7.854;2023-06-22T01:05:37;7.07;;;6.00;;
3527;SDS011;1778;47.966;7.854;2023-06-22T01:06:45;5.50;;;5.20;;
3527;SDS011;1778;47.966;7.854;2023-06-22T01:07:55;5.53;;;4.90;;
3527;SDS011;1778;47.966;7.854;2023-06-22T01:09:27;14.67;;;5.87;;
3527;SDS011;1778;47.966;7.854;2023-06-22T01:11:57;7.43;;;5.23;;
3527;SDS011;1778;47.966;7.854;2023-06-22T01:13:07;5.50;;;5.20;;
3527;SDS011;1778;47.966;7.854;2023-06-22T01:14:35;5.93;;;5.43;;
3527;SDS011;1778;47.966;7.854;2023-06-22T01:15:46;5.43;;;5.00;;
3527;SDS011;1778;47.966;7.854;2023-06-22T01:16:54;6.10;;;5.60;;
3527;SDS011;1778;47.966;7.854;2023-06-22T01:17:57;5.13;;;4.77;;
3527;SDS011;1778;47.966;7.854;2023-06-22T01:19:01;16.40;;;4.97;;
3527;SDS011;1778;47.966;7.854;2023-06-22T01:20:13;5.97;;;5.47;;
3527;SDS011;1778;47.966;7.854;2023-06-22T01:21:18;6.17;;;5.77;;
3527;SDS011;1778;47.966;7.854;2023-06-22T01:22:25;5.13;;;4.80;;
3527;SDS011;1778;47.966;7.854;2023-06-22T01:26:28;5.80;;;5.40;;
3527;SDS011;1778;47.966;7.854;2023-06-22T01:29:21;37.47;;;5.70;;
3527;SDS011;1778;47.966;7.854;2023-06-22T01:30:23;5.10;;;4.80;;
3527;SDS011;1778;47.966;7.854;2023-06-22T01:31:27;7.07;;;5.20;;
3527;SDS011;1778;47.966;7.854;2023-06-22T01:32:32;13.90;;;5.80;;
3527;SDS011;1778;47.966;7.854;2023-06-22T01:33:37;5.30;;;5.03;;
3527;SDS011;1778;47.966;7.854;2023-06-22T01:34:45;5.87;;;5.40;;
3527;SDS011;1778;47.966;7.854;2023-06-22T01:38:51;4.87;;;4.63;;
3527;SDS011;1778;47.966;7.854;2023-06-22T01:39:54;5.37;;;5.07;;
3527;SDS011;1778;47.966;7.854;2023-06-22T01:40:57;5.60;;;5.20;;
3527;SDS011;1778;47.966;7.854;2023-06-22T01:41:59;5.90;;;5.30;;
3527;SDS011;1778;47.966;7.854;2023-06-22T01:43:03;19.10;;;6.10;;
3527;SDS011;1778;47.966;7.854;2023-06-22T01:44:05;6.40;;;6.00;;
3527;SDS011;1778;47.966;7.854;2023-06-22T01:45:11;5.83;;;5.17;;
3527;SDS011;1778;47.966;7.854;2023-06-22T01:46:13;5.87;;;5.37;;
3527;SDS011;1778;47.966;7.854;2023-06-22T01:47:15;5.90;;;5.60;;
3527;SDS011;1778;47.966;7.854;2023-06-22T01:48:17;6.30;;;5.47;;
3527;SDS011;1778;47.966;7.854;2023-06-22T01:49:20;4.63;;;4.43;;
3527;SDS011;1778;47.966;7.854;2023-06-22T01:50:22;4.60;;;4.40;;
3527;SDS011;1778;47.966;7.854;2023-06-22T01:51:24;4.77;;;4.57;;
3527;SDS011;1778;47.966;7.854;2023-06-22T01:52:25;6.20;;;5.73;;
3527;SDS011;1778;47.966;7.854;2023-06-22T01:53:27;6.40;;;5.07;;
3527;SDS011;1778;47.966;7.854;2023-06-22T01:54:28;4.90;;;4.50;;
3527;SDS011;1778;47.966;7.854;2023-06-22T01:55:30;6.00;;;5.50;;
3527;SDS011;1778;47.966;7.854;2023-06-22T01:56:32;6.33;;;5.70;;
3527;SDS011;1778;47.966;7.854;2023-06-22T01:57:33;5.50;;;5.20;;
3527;SDS011;1778;47.966;7.854;2023-06-22T01:58:36;4.77;;;4.50;;
3527;SDS011;1778;47.966;7.854;2023-06-22T02:00:48;5.60;;;5.27;;
3527;SDS011;1778;47.966;7.854;2023-06-22T02:02:01;5.97;;;5.57;;
3527;SDS011;1778;47.966;7.854;2023-06-22T02:03:11;6.30;;;5.80;;
3527;SDS011;1778;47.966;7.854;2023-06-22T02:04:20;5.80;;;5.30;;
3527;SDS011;1778;47.966;7.854;2023-06-22T02:05:35;6.30;;;5.90;;
3527;SDS011;1778;47.966;7.854;2023-06-22T02:06:42;5.73;;;5.33;;
3527;SDS011;1778;47.966;7.854;2023-06-22T02:07:49;5.70;;;5.30;;
3527;SDS011;1778;47.966;7.854;2023-06-22T02:08:59;7.07;;;6.47;;
3527;SDS011;1778;47.966;7.854;2023-06-22T02:10:03;5.70;;;5.10;;
3527;SDS011;1778;47.966;7.854;2023-06-22T02:11:08;6.63;;;6.13;;
3527;SDS011;1778;47.966;7.854;2023-06-22T02:12:12;5.80;;;5.40;;
3527;SDS011;1778;47.966;7.854;2023-06-22T02:13:17;5.97;;;5.47;;
3527;SDS011;1778;47.966;7.854;2023-06-22T02:14:20;6.17;;;5.67;;
3527;SDS011;1778;47.966;7.854;2023-06-22T02:15:22;9.10;;;5.70;;
3527;SDS011;1778;47.966;7.854;2023-06-22T02:16:28;5.50;;;5.20;;
3527;SDS011;1778;47.966;7.854;2023-06-22T02:17:31;6.47;;;6.00;;
3527;SDS011;1778;47.966;7.854;2023-06-22T02:18:34;5.83;;;5.30;;
3527;SDS011;1778;47.966;7.854;2023-06-22T02:19:37;6.70;;;6.10;;
3527;SDS011;1778;47.966;7.854;2023-06-22T02:20:41;6.27;;;5.77;;
3527;SDS011;1778;47.966;7.854;2023-06-22T02:21:44;6.00;;;5.50;;
3527;SDS011;1778;47.966;7.854;2023-06-22T02:22:47;5.90;;;5.50;;
3527;SDS011;1778;47.966;7.854;2023-06-22T02:23:48;8.40;;;5.40;;
3527;SDS011;1778;47.966;7.854;2023-06-22T02:24:50;6.00;;;5.67;;
3527;SDS011;1778;47.966;7.854;2023-06-22T02:25:53;6.27;;;5.77;;
3527;SDS011;1778;47.966;7.854;2023-06-22T02:26:58;6.20;;;5.63;;
3527;SDS011;1778;47.966;7.854;2023-06-22T02:28:01;7.60;;;6.07;;
3527;SDS011;1778;47.966;7.854;2023-06-22T02:29:03;5.20;;;4.90;;
3527;SDS011;1778;47.966;7.854;2023-06-22T02:30:06;5.20;;;4.90;;
3527;SDS011;1778;47.966;7.854;2023-06-22T02:31:09;5.77;;;5.27;;
3527;SDS011;1778;47.966;7.854;2023-06-22T02:32:11;6.13;;;5.73;;
3527;SDS011;1778;47.966;7.854;2023-06-22T02:33:12;5.80;;;5.40;;
3527;SDS011;1778;47.966;7.854;2023-06-22T02:34:14;6.50;;;5.90;;
3527;SDS011;1778;47.966;7.854;2023-06-22T02:35:19;5.47;;;5.17;;
3527;SDS011;1778;47.966;7.854;2023-06-22T02:36:20;5.70;;;5.40;;
3527;SDS011;1778;47.966;7.854;2023-06-22T02:37:23;7.50;;;6.67;;
3527;SDS011;1778;47.966;7.854;2023-06-22T02:38:26;6.83;;;5.80;;
3527;SDS011;1778;47.966;7.854;2023-06-22T02:39:27;6.40;;;5.90;;
3527;SDS011;1778;47.966;7.854;2023-06-22T02:40:29;5.60;;;5.20;;
3527;SDS011;1778;47.966;7.854;2023-06-22T02:41:32;14.93;;;6.47;;
3527;SDS011;1778;47.966;7.854;2023-06-22T02:42:33;6.23;;;5.70;;
3527;SDS011;1778;47.966;7.854;2023-06-22T02:43:35;6.43;;;6.00;;
3527;SDS011;1778;47.966;7.854;2023-06-22T02:44:37;6.53;;;6.03;;
3527;SDS011;1778;47.966;7.854;2023-06-22T02:45:39;11.07;;;6.00;;
3527;SDS011;1778;47.966;7.854;2023-06-22T02:46:41;7.10;;;6.50;;
3527;SDS011;1778;47.966;7.854;2023-06-22T02:47:43;6.83;;;6.33;;
3527;SDS011;1778;47.966;7.854;2023-06-22T02:48:45;6.20;;;5.80;;
3527;SDS011;1778;47.966;7.854;2023-06-22T02:49:47;6.40;;;5.90;;
3527;SDS011;1778;47.966;7.854;2023-06-22T02:50:49;6.83;;;6.30;;
3527;SDS011;1778;47.966;7.854;2023-06-22T02:51:51;6.53;;;5.87;;
3527;SDS011;1778;47.966;7.854;2023-06-22T02:52:54;6.63;;;6.00;;
3527;SDS011;1778;47.966;7.854;2023-06-22T02:53:56;7.13;;;6.50;;
3527;SDS011;1778;47.966;7.854;2023-06-22T02:55:01;8.93;;;6.93;;
3527;SDS011;1778;47.966;7.854;2023-06-22T02:56:04;6.20;;;5.70;;
3527;SDS011;1778;47.966;7.854;2023-06-22T02:57:11;6.30;;;6.00;;
3527;SDS011;1778;47.966;7.854;2023-06-22T02:58:16;6.33;;;5.93;;
3527;SDS011;1778;47.966;7.854;2023-06-22T02:59:18;6.37;;;5.97;;
3527;SDS011;1778;47.966;7.854;2023-06-22T03:00:26;5.37;;;5.07;;
3527;SDS011;1778;47.966;7.854;2023-06-22T03:01:32;6.90;;;6.40;;
3527;SDS011;1778;47.966;7.854;2023-06-22T03:02:48;5.83;;;5.33;;
3527;SDS011;1778;47.966;7.854;2023-06-22T03:03:51;9.20;;;8.30;;
3527;SDS011;1778;47.966;7.854;2023-06-22T03:04:53;7.30;;;6.67;;
3527;SDS011;1778;47.966;7.854;2023-06-22T03:05:55;6.27;;;5.93;;
3527;SDS011;1778;47.966;7.854;2023-06-22T03:06:57;8.33;;;6.77;;
3527;SDS011;1778;47.966;7.854;2023-06-22T03:08:04;7.10;;;6.60;;
3527;SDS011;1778;47.966;7.854;2023-06-22T03:09:08;6.70;;;6.10;;
3527;SDS011;1778;47.966;7.854;2023-06-22T03:10:10;7.00;;;6.53;;
3527;SDS011;1778;47.966;7.854;2023-06-22T03:11:13;7.10;;;6.50;;
3527;SDS011;1778;47.966;7.854;2023-06-22T03:12:15;7.37;;;6.77;;
3527;SDS011;1778;47.966;7.854;2023-06-22T03:13:23;7.57;;;6.60;;
3527;SDS011;1778;47.966;7.854;2023-06-22T03:14:25;7.17;;;6.57;;
3527;SDS011;1778;47.966;7.854;2023-06-22T03:15:27;7.13;;;6.67;;
3527;SDS011;1778;47.966;7.854;2023-06-22T03:16:30;6.50;;;6.10;;
3527;SDS011;1778;47.966;7.854;2023-06-22T03:17:34;9.23;;;6.60;;
3527;SDS011;1778;47.966;7.854;2023-06-22T03:18:37;6.60;;;6.00;;
3527;SDS011;1778;47.966;7.854;2023-06-22T03:19:38;7.20;;;6.60;;
3527;SDS011;1778;47.966;7.854;2023-06-22T03:20:40;5.90;;;5.60;;
3527;SDS011;1778;47.966;7.854;2023-06-22T03:21:42;6.90;;;6.40;;
3527;SDS011;1778;47.966;7.854;2023-06-22T03:22:44;7.00;;;6.60;;
3527;SDS011;1778;47.966;7.854;2023-06-22T03:23:45;7.00;;;6.60;;
3527;SDS011;1778;47.966;7.854;2023-06-22T03:24:47;6.60;;;6.00;;
3527;SDS011;1778;47.966;7.854;2023-06-22T03:25:49;6.77;;;6.27;;
3527;SDS011;1778;47.966;7.854;2023-06-22T03:26:50;6.63;;;6.13;;
3527;SDS011;1778;47.966;7.854;2023-06-22T03:27:52;6.70;;;6.10;;
3527;SDS011;1778;47.966;7.854;2023-06-22T03:28:55;7.17;;;6.70;;
3527;SDS011;1778;47.966;7.854;2023-06-22T03:29:57;6.43;;;6.00;;
3527;SDS011;1778;47.966;7.854;2023-06-22T03:31:01;7.53;;;6.80;;
3527;SDS011;1778;47.966;7.854;2023-06-22T03:32:04;8.03;;;6.43;;
3527;SDS011;1778;47.966;7.854;2023-06-22T03:33:07;6.80;;;6.30;;
3527;SDS011;1778;47.966;7.854;2023-06-22T03:34:08;6.90;;;6.50;;
3527;SDS011;1778;47.966;7.854;2023-06-22T03:35:10;7.47;;;6.63;;
3527;SDS011;1778;47.966;7.854;2023-06-22T03:36:15;13.90;;;6.20;;
3527;SDS011;1778;47.966;7.854;2023-06-22T03:37:20;8.00;;;6.97;;
3527;SDS011;1778;47.966;7.854;2023-06-22T03:38:22;6.63;;;6.03;;
3527;SDS011;1778;47.966;7.854;2023-06-22T03:39:28;6.67;;;6.13;;
3527;SDS011;1778;47.966;7.854;2023-06-22T03:40:31;5.93;;;5.60;;
3527;SDS011;1778;47.966;7.854;2023-06-22T03:41:34;6.83;;;6.33;;
3527;SDS011;1778;47.966;7.854;2023-06-22T03:42:36;6.43;;;5.97;;
3527;SDS011;1778;47.966;7.854;2023-06-22T03:43:37;6.50;;;6.10;;
3527;SDS011;1778;47.966;7.854;2023-06-22T03:44:40;6.70;;;6.30;;
3527;SDS011;1778;47.966;7.854;2023-06-22T03:45:41;10.13;;;7.13;;
3527;SDS011;1778;47.966;7.854;2023-06-22T03:46:43;8.17;;;6.93;;
3527;SDS011;1778;47.966;7.854;2023-06-22T03:47:45;5.80;;;5.30;;
3527;SDS011;1778;47.966;7.854;2023-06-22T03:48:46;6.60;;;6.10;;
3527;SDS011;1778;47.966;7.854;2023-06-22T03:49:48;6.67;;;6.17;;
3527;SDS011;1778;47.966;7.854;2023-06-22T03:50:49;7.10;;;6.50;;
3527;SDS011;1778;47.966;7.854;2023-06-22T03:51:51;7.63;;;6.33;;
3527;SDS011;1778;47.966;7.854;2023-06-22T03:52:52;6.93;;;6.43;;
3527;SDS011;1778;47.966;7.854;2023-06-22T03:53:54;6.60;;;6.10;;
3527;SDS011;1778;47.966;7.854;2023-06-22T03:54:56;6.47;;;5.97;;
3527;SDS011;1778;47.966;7.854;2023-06-22T03:55:58;6.53;;;5.90;;
3527;SDS011;1778;47.966;7.854;2023-06-22T03:56:59;7.23;;;6.40;;
3527;SDS011;1778;47.966;7.854;2023-06-22T03:58:01;7.60;;;6.97;;
3527;SDS011;1778;47.966;7.854;2023-06-22T03:59:06;5.50;;;5.10;;
3527;SDS011;1778;47.966;7.854;2023-06-22T04:00:08;8.93;;;6.23;;
3527;SDS011;1778;47.966;7.854;2023-06-22T04:01:14;5.23;;;4.83;;
3527;SDS011;1778;47.966;7.854;2023-06-22T04:02:18;6.10;;;5.70;;
3527;SDS011;1778;47.966;7.854;2023-06-22T04:03:19;5.73;;;5.43;;
3527;SDS011;1778;47.966;7.854;2023-06-22T04:04:21;5.97;;;5.63;;
3527;SDS011;1778;47.966;7.854;2023-06-22T04:05:23;6.87;;;6.00;;
3527;SDS011;1778;47.966;7.854;2023-06-22T04:06:25;13.27;;;5.60;;
3527;SDS011;1778;47.966;7.854;2023-06-22T04:07:27;6.17;;;5.67;;
3527;SDS011;1778;47.966;7.854;2023-06-22T04:08:29;5.93;;;5.53;;
3527;SDS011;1778;47.966;7.854;2023-06-22T04:09:30;5.33;;;5.00;;
3527;SDS011;1778;47.966;7.854;2023-06-22T04:10:32;5.03;;;4.73;;
3527;SDS011;1778;47.966;7.854;2023-06-22T04:11:34;9.47;;;5.30;;
3527;SDS011;1778;47.966;7.854;2023-06-22T04:12:36;7.13;;;6.37;;
3527;SDS011;1778;47.966;7.854;2023-06-22T04:13:38;8.27;;;6.00;;
3527;SDS011;1778;47.966;7.854;2023-06-22T04:14:39;7.43;;;6.93;;
3527;SDS011;1778;47.966;7.854;2023-06-22T04:15:41;6.40;;;5.83;;
3527;SDS011;1778;47.966;7.854;2023-06-22T04:16:42;6.87;;;6.13;;
3527;SDS011;1778;47.966;7.854;2023-06-22T04:17:44;5.80;;;5.40;;
3527;SDS011;1778;47.966;7.854;2023-06-22T04:18:45;5.60;;;5.17;;
3527;SDS011;1778;47.966;7.854;2023-06-22T04:19:47;5.70;;;5.30;;
3527;SDS011;1778;47.966;7.854;2023-06-22T04:20:49;6.43;;;5.80;;
3527;SDS011;1778;47.966;7.854;2023-06-22T04:21:50;7.90;;;5.47;;
3527;SDS011;1778;47.966;7.854;2023-06-22T04:22:52;5.83;;;5.40;;
3527;SDS011;1778;47.966;7.854;2023-06-22T04:23:55;6.67;;;6.10;;
3527;SDS011;1778;47.966;7.854;2023-06-22T04:24:56;5.77;;;5.23;;
3527;SDS011;1778;47.966;7.854;2023-06-22T04:25:58;5.60;;;5.20;;
3527;SDS011;1778;47.966;7.854;2023-06-22T04:27:00;5.20;;;4.87;;
3527;SDS011;1778;47.966;7.854;2023-06-22T04:28:04;7.17;;;5.23;;
3527;SDS011;1778;47.966;7.854;2023-06-22T04:29:05;5.10;;;4.80;;
3527;SDS011;1778;47.966;7.854;2023-06-22T04:30:09;8.03;;;5.07;;
3527;SDS011;1778;47.966;7.854;2023-06-22T04:31:11;8.30;;;5.50;;
3527;SDS011;1778;47.966;7.854;2023-06-22T04:32:13;7.43;;;5.30;;
3527;SDS011;1778;47.966;7.854;2023-06-22T04:33:17;5.00;;;4.77;;
3527;SDS011;1778;47.966;7.854;2023-06-22T04:34:19;11.60;;;4.70;;
3527;SDS011;1778;47.966;7.854;2023-06-22T04:35:20;5.40;;;4.90;;
3527;SDS011;1778;47.966;7.854;2023-06-22T04:36:23;5.67;;;5.00;;
3527;SDS011;1778;47.966;7.854;2023-06-22T04:37:26;4.73;;;4.43;;
3527;SDS011;1778;47.966;7.854;2023-06-22T04:38:27;4.70;;;4.40;;
3527;SDS011;1778;47.966;7.854;2023-06-22T04:39:29;10.03;;;5.40;;
3527;SDS011;1778;47.966;7.854;2023-06-22T04:40:32;5.10;;;4.57;;
3527;SDS011;1778;47.966;7.854;2023-06-22T04:41:34;8.80;;;4.90;;
3527;SDS011;1778;47.966;7.854;2023-06-22T04:42:45;8.60;;;4.70;;
3527;SDS011;1778;47.966;7.854;2023-06-22T04:43:53;6.53;;;5.93;;
3527;SDS011;1778;47.966;7.854;2023-06-22T04:45:01;4.77;;;4.47;;
3527;SDS011;1778;47.966;7.854;2023-06-22T04:46:03;5.40;;;5.10;;
3527;SDS011;1778;47.966;7.854;2023-06-22T04:47:04;5.17;;;4.87;;
3527;SDS011;1778;47.966;7.854;2023-06-22T04:48:09;6.13;;;5.63;;
3527;SDS011;1778;47.966;7.854;2023-06-22T04:49:11;6.40;;;5.73;;
3527;SDS011;1778;47.966;7.854;2023-06-22T04:50:13;5.27;;;4.87;;
3527;SDS011;1778;47.966;7.854;2023-06-22T04:51:15;7.17;;;4.80;;
3527;SDS011;1778;47.966;7.854;2023-06-22T04:52:16;6.03;;;5.40;;
3527;SDS011;1778;47.966;7.854;2023-06-22T04:53:18;5.63;;;5.13;;
3527;SDS011;1778;47.966;7.854;2023-06-22T04:54:20;7.10;;;5.93;;
3527;SDS011;1778;47.966;7.854;2023-06-22T04:55:21;7.40;;;6.70;;
3527;SDS011;1778;47.966;7.854;2023-06-22T04:56:23;6.07;;;5.67;;
3527;SDS011;1778;47.966;7.854;2023-06-22T04:57:29;6.37;;;4.70;;
3527;SDS011;1778;47.966;7.854;2023-06-22T04:58:34;5.67;;;5.17;;
3527;SDS011;1778;47.966;7.854;2023-06-22T04:59:36;6.17;;;5.67;;
3527;SDS011;1778;47.966;7.854;2023-06-22T05:00:40;5.60;;;4.90;;
3527;SDS011;1778;47.966;7.854;2023-06-22T05:01:41;5.87;;;4.93;;
3527;SDS011;1778;47.966;7.854;2023-06-22T05:02:44;5.20;;;4.77;;
3527;SDS011;1778;47.966;7.854;2023-06-22T05:03:47;5.87;;;5.37;;
3527;SDS011;1778;47.966;7.854;2023-06-22T05:04:49;7.70;;;5.60;;
3527;SDS011;1778;47.966;7.854;2023-06-22T05:05:52;5.10;;;4.80;;
3527;SDS011;1778;47.966;7.854;2023-06-22T05:06:54;6.50;;;4.97;;
3527;SDS011;1778;47.966;7.854;2023-06-22T05:07:56;4.97;;;4.57;;
3527;SDS011;1778;47.966;7.854;2023-06-22T05:09:00;5.30;;;4.80;;
3527;SDS011;1778;47.966;7.854;2023-06-22T05:10:02;5.23;;;4.90;;
3527;SDS011;1778;47.966;7.854;2023-06-22T05:11:04;5.57;;;5.13;;
3527;SDS011;1778;47.966;7.854;2023-06-22T05:12:06;5.27;;;4.73;;
3527;SDS011;1778;47.966;7.854;2023-06-22T05:13:11;5.07;;;4.67;;
3527;SDS011;1778;47.966;7.854;2023-06-22T05:14:13;4.60;;;4.30;;
3527;SDS011;1778;47.966;7.854;2023-06-22T05:15:14;5.87;;;5.47;;
3527;SDS011;1778;47.966;7.854;2023-06-22T05:16:16;8.10;;;4.60;;
3527;SDS011;1778;47.966;7.854;2023-06-22T05:17:18;5.07;;;4.67;;
3527;SDS011;1778;47.966;7.854;2023-06-22T05:18:20;5.40;;;4.23;;
3527;SDS011;1778;47.966;7.854;2023-06-22T05:19:24;14.13;;;5.03;;
3527;SDS011;1778;47.966;7.854;2023-06-22T05:20:32;5.70;;;5.00;;
3527;SDS011;1778;47.966;7.854;2023-06-22T05:21:37;5.50;;;4.77;;
3527;SDS011;1778;47.966;7.854;2023-06-22T05:22:39;5.77;;;5.13;;
3527;SDS011;1778;47.966;7.854;2023-06-22T05:23:42;9.30;;;5.03;;
3527;SDS011;1778;47.966;7.854;2023-06-22T05:24:44;5.83;;;5.33;;
3527;SDS011;1778;47.966;7.854;2023-06-22T05:26:04;6.20;;;4.97;;
3527;SDS011;1778;47.966;7.854;2023-06-22T05:27:41;4.60;;;4.30;;
3527;SDS011;1778;47.966;7.854;2023-06-22T05:29:20;6.13;;;4.57;;
3527;SDS011;1778;47.966;7.854;2023-06-22T05:30:42;5.10;;;4.77;;
3527;SDS011;1778;47.966;7.854;2023-06-22T05:32:20;4.87;;;4.33;;
3527;SDS011;1778;47.966;7.854;2023-06-22T05:33:58;5.30;;;4.80;;
3527;SDS011;1778;47.966;7.854;2023-06-22T05:35:20;7.80;;;4.90;;
3527;SDS011;1778;47.966;7.854;2023-06-22T05:36:21;6.70;;;4.63;;
3527;SDS011;1778;47.966;7.854;2023-06-22T05:37:26;5.37;;;4.97;;
3527;SDS011;1778;47.966;7.854;2023-06-22T05:38:28;10.73;;;4.90;;
3527;SDS011;1778;47.966;7.854;2023-06-22T05:39:29;5.23;;;4.83;;
3527;SDS011;1778;47.966;7.854;2023-06-22T05:40:31;5.23;;;4.87;;
3527;SDS011;1778;47.966;7.854;2023-06-22T05:41:32;4.87;;;4.47;;
3527;SDS011;1778;47.966;7.854;2023-06-22T05:42:34;5.27;;;4.90;;
3527;SDS011;1778;47.966;7.854;2023-06-22T05:43:35;8.87;;;5.50;;
3527;SDS011;1778;47.966;7.854;2023-06-22T05:44:37;6.03;;;5.57;;
3527;SDS011;1778;47.966;7.854;2023-06-22T05:45:40;4.63;;;4.32;;
3527;SDS011;1778;47.966;7.854;2023-06-22T05:46:42;5.07;;;4.67;;
3527;SDS011;1778;47.966;7.854;2023-06-22T05:47:49;6.60;;;6.00;;
3527;SDS011;1778;47.966;7.854;2023-06-22T05:48:50;5.60;;;5.20;;
3527;SDS011;1778;47.966;7.854;2023-06-22T05:49:52;5.23;;;4.40;;
3527;SDS011;1778;47.966;7.854;2023-06-22T05:50:53;5.30;;;4.90;;
3527;SDS011;1778;47.966;7.854;2023-06-22T05:51:56;5.33;;;4.97;;
3527;SDS011;1778;47.966;7.854;2023-06-22T05:52:57;5.60;;;5.10;;
3527;SDS011;1778;47.966;7.854;2023-06-22T05:53:59;5.93;;;4.67;;
3527;SDS011;1778;47.966;7.854;2023-06-22T05:55:01;5.33;;;4.93;;
3527;SDS011;1778;47.966;7.854;2023-06-22T05:56:06;5.33;;;4.83;;
3527;SDS011;1778;47.966;7.854;2023-06-22T05:57:08;5.50;;;5.10;;
3527;SDS011;1778;47.966;7.854;2023-06-22T05:58:09;7.30;;;4.30;;
3527;SDS011;1778;47.966;7.854;2023-06-22T05:59:11;5.40;;;5.00;;
3527;SDS011;1778;47.966;7.854;2023-06-22T06:00:13;5.20;;;4.70;;
3527;SDS011;1778;47.966;7.854;2023-06-22T06:01:17;5.70;;;4.65;;
3527;SDS011;1778;47.966;7.854;2023-06-22T06:02:19;4.77;;;4.43;;
3527;SDS011;1778;47.966;7.854;2023-06-22T06:03:21;5.90;;;5.20;;
3527;SDS011;1778;47.966;7.854;2023-06-22T06:04:22;5.90;;;5.33;;
3527;SDS011;1778;47.966;7.854;2023-06-22T06:05:24;5.90;;;5.40;;
3527;SDS011;1778;47.966;7.854;2023-06-22T06:06:26;6.67;;;6.00;;
3527;SDS011;1778;47.966;7.854;2023-06-22T06:07:29;5.60;;;5.10;;
3527;SDS011;1778;47.966;7.854;2023-06-22T06:08:31;7.17;;;5.70;;
3527;SDS011;1778;47.966;7.854;2023-06-22T06:09:33;8.35;;;5.30;;
3527;SDS011;1778;47.966;7.854;2023-06-22T06:10:34;6.30;;;5.80;;
3527;SDS011;1778;47.966;7.854;2023-06-22T06:11:37;11.93;;;5.10;;
3527;SDS011;1778;47.966;7.854;2023-06-22T06:12:38;8.90;;;6.00;;
3527;SDS011;1778;47.966;7.854;2023-06-22T06:13:40;5.43;;;5.10;;
3527;SDS011;1778;47.966;7.854;2023-06-22T06:14:41;6.60;;;6.00;;
3527;SDS011;1778;47.966;7.854;2023-06-22T06:15:43;7.18;;;5.38;;
3527;SDS011;1778;47.966;7.854;2023-06-22T06:16:48;5.68;;;5.22;;
3527;SDS011;1778;47.966;7.854;2023-06-22T06:17:51;6.22;;;5.72;;
3527;SDS011;1778;47.966;7.854;2023-06-22T06:18:53;6.90;;;5.35;;
3527;SDS011;1778;47.966;7.854;2023-06-22T06:19:58;8.47;;;6.67;;
3527;SDS011;1778;47.966;7.854;2023-06-22T06:21:00;7.30;;;6.50;;
3527;SDS011;1778;47.966;7.854;2023-06-22T06:22:03;8.27;;;5.80;;
3527;SDS011;1778;47.966;7.854;2023-06-22T06:23:05;8.15;;;6.10;;
3527;SDS011;1778;47.966;7.854;2023-06-22T06:24:07;10.63;;;6.88;;
3527;SDS011;1778;47.966;7.854;2023-06-22T06:25:09;12.50;;;7.25;;
3527;SDS011;1778;47.966;7.854;2023-06-22T06:26:10;8.70;;;6.38;;
3527;SDS011;1778;47.966;7.854;2023-06-22T06:27:13;6.20;;;5.70;;
3527;SDS011;1778;47.966;7.854;2023-06-22T06:28:14;6.73;;;6.00;;
3527;SDS011;1778;47.966;7.854;2023-06-22T06:29:16;6.57;;;5.97;;
3527;SDS011;1778;47.966;7.854;2023-06-22T06:30:18;6.53;;;5.82;;
3527;SDS011;1778;47.966;7.854;2023-06-22T06:31:20;6.07;;;5.35;;
3527;SDS011;1778;47.966;7.854;2023-06-22T06:32:23;6.90;;;6.10;;
3527;SDS011;1778;47.966;7.854;2023-06-22T06:33:25;11.57;;;7.05;;
3527;SDS011;1778;47.966;7.854;2023-06-22T06:34:26;7.15;;;6.03;;
3527;SDS011;1778;47.966;7.854;2023-06-22T06:35:28;7.55;;;5.93;;
3527;SDS011;1778;47.966;7.854;2023-06-22T06:36:30;7.10;;;6.43;;
3527;SDS011;1778;47.966;7.854;2023-06-22T06:37:35;7.82;;;6.22;;
3527;SDS011;1778;47.966;7.854;2023-06-22T06:38:38;7.68;;;5.45;;
3527;SDS011;1778;47.966;7.854;2023-06-22T06:39:39;11.25;;;6.47;;
3527;SDS011;1778;47.966;7.854;2023-06-22T06:40:44;5.90;;;5.40;;
3527;SDS011;1778;47.966;7.854;2023-06-22T06:41:46;7.15;;;6.03;;
3527;SDS011;1778;47.966;7.854;2023-06-22T06:42:49;6.18;;;5.70;;
3527;SDS011;1778;47.966;7.854;2023-06-22T06:43:51;7.75;;;6.00;;
3527;SDS011;1778;47.966;7.854;2023-06-22T06:44:52;5.60;;;5.10;;
3527;SDS011;1778;47.966;7.854;2023-06-22T06:45:54;6.95;;;6.10;;